Chadwick, Illinois
Current Conditions -  °F | °C
As of 4:55 PM on Monday 24 Nov 2014 (Local Time) from KSFY Reporting Station
Light Snow Light Snow  
Wind Chill: 13°   Ceiling: 1700
Heat Index: 26°   Visibility: 7mi
Dew Point: 21°   Wind: 15mph
Humidity: 82%   Direction: 260°W
Pressure: 29.66"   Gusts: 21mph
Location:  42.01°N, 89.89°W
Report Text: KSFY 242255Z AUTO 26013G18KT 7SM -SN OVC017 M04/M06 A2966 RMK AO2 T10361062
Loading
Personal Weather Stations






























Interactive Weather Map New forecast layout! Learn more

10-Day Weather Forecast

Advertisements
Track Severe Weather on mobile